createdAt,value
2018-07-03T00:00:43.492Z,54.3
2018-07-03T00:01:33.736Z,54.33
2018-07-03T00:02:33.531Z,54.31
2018-07-03T00:03:33.709Z,54.33
2018-07-03T00:04:33.478Z,54.33
2018-07-03T00:05:33.512Z,54.31
2018-07-03T00:06:33.558Z,54.36
2018-07-03T00:07:33.698Z,54.32
2018-07-03T00:08:33.662Z,54.36
2018-07-03T00:09:33.474Z,54.35
2018-07-03T00:10:33.838Z,54.31
2018-07-03T00:11:33.524Z,54.31
2018-07-03T00:12:33.574Z,54.34
2018-07-03T00:13:33.566Z,54.36
2018-07-03T00:14:33.429Z,54.31
2018-07-03T00:15:33.560Z,54.37
2018-07-03T00:16:33.455Z,54.36
2018-07-03T00:17:33.516Z,54.36
2018-07-03T00:18:33.562Z,54.37
2018-07-03T00:19:33.690Z,54.37
2018-07-03T00:20:33.709Z,54.35
2018-07-03T00:21:33.595Z,54.36
2018-07-03T00:22:33.588Z,54.38
2018-07-03T00:23:33.426Z,54.39
2018-07-03T00:24:33.467Z,54.38
2018-07-03T00:25:33.629Z,54.38
2018-07-03T00:26:33.544Z,54.39
2018-07-03T00:27:33.530Z,54.35
2018-07-03T00:28:33.407Z,54.36
2018-07-03T00:29:33.610Z,54.42
2018-07-03T00:30:33.634Z,54.36
2018-07-03T00:31:33.643Z,54.37
2018-07-03T00:32:33.418Z,54.4
2018-07-03T00:33:33.468Z,54.4
2018-07-03T00:34:33.838Z,54.39
2018-07-03T00:35:33.594Z,54.37
2018-07-03T00:36:33.516Z,54.39
2018-07-03T00:37:33.697Z,54.39
2018-07-03T00:38:33.632Z,54.39
2018-07-03T00:39:33.605Z,54.38
2018-07-03T00:40:33.555Z,54.4
2018-07-03T00:41:33.680Z,54.39
2018-07-03T00:42:33.550Z,54.37
2018-07-03T00:43:33.395Z,54.39
2018-07-03T00:44:33.428Z,54.39
2018-07-03T00:45:33.538Z,54.4
2018-07-03T00:46:33.612Z,54.42
2018-07-03T00:47:33.475Z,54.41
2018-07-03T00:48:33.794Z,54.39
2018-07-03T00:49:33.655Z,54.41
2018-07-03T00:50:33.792Z,54.39
2018-07-03T00:51:33.469Z,54.39
2018-07-03T00:52:33.478Z,54.43
2018-07-03T00:53:33.532Z,54.39
2018-07-03T00:54:33.468Z,54.39
2018-07-03T00:55:33.942Z,54.35
2018-07-03T00:56:33.528Z,54.42
2018-07-03T00:57:33.676Z,54.39
2018-07-03T00:58:33.564Z,54.37
2018-07-03T00:59:33.528Z,54.42
2018-07-03T01:00:33.484Z,54.42
2018-07-03T01:01:33.630Z,54.38
2018-07-03T01:02:33.673Z,54.42
2018-07-03T01:03:33.415Z,54.44
2018-07-03T01:04:33.598Z,54.45
2018-07-03T01:05:33.566Z,54.41
2018-07-03T01:06:33.449Z,54.42
2018-07-03T01:07:33.622Z,54.44
2018-07-03T01:08:33.451Z,54.44
2018-07-03T01:09:33.629Z,54.42
2018-07-03T01:10:33.446Z,54.44
2018-07-03T01:11:33.391Z,54.44
2018-07-03T01:12:33.447Z,54.42
2018-07-03T01:13:33.414Z,54.46
2018-07-03T01:14:33.453Z,54.41
2018-07-03T01:15:33.590Z,54.44
2018-07-03T01:16:33.515Z,54.41
2018-07-03T01:17:33.550Z,54.38
2018-07-03T01:18:33.633Z,54.4
2018-07-03T01:19:33.599Z,54.41
2018-07-03T01:20:33.458Z,54.41
2018-07-03T01:21:33.415Z,54.41
2018-07-03T01:22:33.535Z,54.4
2018-07-03T01:23:33.658Z,54.42
2018-07-03T01:24:33.607Z,54.43
2018-07-03T01:25:33.757Z,54.44
2018-07-03T01:26:33.754Z,54.38
2018-07-03T01:27:33.738Z,54.41
2018-07-03T01:28:33.544Z,54.4
2018-07-03T01:29:33.451Z,54.4
2018-07-03T01:30:33.583Z,54.41
2018-07-03T01:31:33.501Z,54.41
2018-07-03T01:32:33.395Z,54.42
2018-07-03T01:33:33.428Z,54.41
2018-07-03T01:34:33.380Z,54.41
2018-07-03T01:35:33.436Z,54.41
2018-07-03T01:36:33.750Z,54.44
2018-07-03T01:37:33.535Z,54.44
2018-07-03T01:38:33.705Z,54.44
2018-07-03T01:39:33.519Z,54.44
2018-07-03T01:40:33.579Z,54.44
2018-07-03T01:41:33.409Z,54.48
2018-07-03T01:42:33.630Z,54.47
2018-07-03T01:43:33.652Z,54.46
2018-07-03T01:44:33.747Z,54.44
2018-07-03T01:45:33.485Z,54.45
2018-07-03T01:46:33.549Z,54.45
2018-07-03T01:47:33.679Z,54.45
2018-07-03T01:48:33.541Z,54.45
2018-07-03T01:49:33.452Z,54.44
2018-07-03T01:50:33.671Z,54.49
2018-07-03T01:51:33.603Z,54.46
2018-07-03T01:52:33.609Z,54.5
2018-07-03T01:53:33.575Z,54.45
2018-07-03T01:54:33.761Z,54.44
2018-07-03T01:55:33.541Z,54.46
2018-07-03T01:56:33.378Z,54.44
2018-07-03T01:57:33.668Z,54.45
2018-07-03T01:58:33.460Z,54.49
2018-07-03T01:59:33.661Z,54.46
2018-07-03T02:00:33.538Z,54.48
2018-07-03T02:01:33.410Z,54.47
2018-07-03T02:02:33.606Z,54.47
2018-07-03T02:03:33.583Z,54.47
2018-07-03T02:04:33.418Z,54.49
2018-07-03T02:05:33.537Z,54.43
2018-07-03T02:06:33.843Z,54.44
2018-07-03T02:07:33.414Z,54.49
2018-07-03T02:08:33.412Z,54.49
2018-07-03T02:09:33.490Z,54.49
2018-07-03T02:10:33.352Z,54.46
2018-07-03T02:11:33.686Z,54.43
2018-07-03T02:12:33.668Z,54.44
2018-07-03T02:13:33.790Z,54.44
2018-07-03T02:14:33.758Z,54.49
2018-07-03T02:15:33.658Z,54.43
2018-07-03T02:16:33.685Z,54.49
2018-07-03T02:17:33.411Z,54.51
2018-07-03T02:18:33.469Z,54.46
2018-07-03T02:19:33.639Z,54.44
2018-07-03T02:20:33.549Z,54.49
2018-07-03T02:21:33.418Z,54.46
2018-07-03T02:22:33.429Z,54.47
2018-07-03T02:23:33.467Z,54.47
2018-07-03T02:24:33.430Z,54.46
2018-07-03T02:25:33.612Z,54.46
2018-07-03T02:26:33.679Z,54.48
2018-07-03T02:27:33.546Z,54.49
2018-07-03T02:28:33.359Z,54.48
2018-07-03T02:29:33.633Z,54.5
2018-07-03T02:30:33.527Z,54.5
2018-07-03T02:31:33.563Z,54.48
2018-07-03T02:32:33.933Z,54.49
2018-07-03T02:33:33.549Z,54.5
2018-07-03T02:34:33.577Z,54.47
2018-07-03T02:35:33.489Z,54.49
2018-07-03T02:36:33.663Z,54.48
2018-07-03T02:37:33.457Z,54.47
2018-07-03T02:38:33.463Z,54.48
2018-07-03T02:39:33.478Z,54.5
2018-07-03T02:40:33.617Z,54.51
2018-07-03T02:41:33.903Z,54.45
2018-07-03T02:42:33.600Z,54.5
2018-07-03T02:43:33.757Z,54.46
2018-07-03T02:44:33.819Z,54.49
2018-07-03T02:45:33.682Z,54.51
2018-07-03T02:46:33.468Z,54.45
2018-07-03T02:47:33.410Z,54.5
2018-07-03T02:48:33.560Z,54.49
2018-07-03T02:49:33.729Z,54.5
2018-07-03T02:50:33.539Z,54.49
2018-07-03T02:51:33.580Z,54.51
2018-07-03T02:52:33.591Z,54.49
2018-07-03T02:53:33.450Z,54.49
2018-07-03T02:54:33.785Z,54.48
2018-07-03T02:55:33.384Z,54.5
2018-07-03T02:56:33.410Z,54.48
2018-07-03T02:57:33.552Z,54.46
2018-07-03T02:58:33.456Z,54.52
2018-07-03T02:59:33.709Z,54.49
2018-07-03T03:00:33.679Z,54.5
2018-07-03T03:01:33.442Z,54.49
2018-07-03T03:02:33.725Z,54.51
2018-07-03T03:03:33.629Z,54.47
2018-07-03T03:04:33.569Z,54.48
2018-07-03T03:05:33.896Z,54.52
2018-07-03T03:06:33.735Z,54.49
2018-07-03T03:07:33.458Z,54.5
2018-07-03T03:08:33.507Z,54.5
2018-07-03T03:09:33.610Z,54.54
2018-07-03T03:10:33.616Z,54.5
2018-07-03T03:11:33.735Z,54.51
2018-07-03T03:12:33.391Z,54.5
2018-07-03T03:13:33.472Z,54.51
2018-07-03T03:14:33.611Z,54.5
2018-07-03T03:15:33.637Z,54.5
2018-07-03T03:16:33.623Z,54.52
2018-07-03T03:17:33.341Z,54.53
2018-07-03T03:18:33.575Z,54.51
2018-07-03T03:19:33.678Z,54.52
2018-07-03T03:20:33.598Z,54.55
2018-07-03T03:21:33.360Z,54.55
2018-07-03T03:22:33.931Z,54.51
2018-07-03T03:23:33.749Z,54.5
2018-07-03T03:24:33.541Z,54.53
2018-07-03T03:25:33.461Z,54.55
2018-07-03T03:26:33.608Z,54.54
2018-07-03T03:27:33.449Z,54.54
2018-07-03T03:28:33.607Z,54.54
2018-07-03T03:29:33.649Z,54.54
2018-07-03T03:30:33.569Z,54.57
2018-07-03T03:31:33.438Z,54.54
2018-07-03T03:32:33.591Z,54.5
2018-07-03T03:33:33.474Z,54.56
2018-07-03T03:34:33.551Z,54.56
2018-07-03T03:35:33.584Z,54.56
2018-07-03T03:36:33.449Z,54.56
2018-07-03T03:37:33.440Z,54.56
2018-07-03T03:38:33.456Z,54.55
2018-07-03T03:39:33.577Z,54.53
2018-07-03T03:40:33.331Z,54.53
2018-07-03T03:41:33.418Z,54.56
2018-07-03T03:42:33.433Z,54.52
2018-07-03T03:43:33.599Z,54.55
2018-07-03T03:44:33.615Z,54.57
2018-07-03T03:45:33.606Z,54.56
2018-07-03T03:46:33.448Z,54.59
2018-07-03T03:47:33.386Z,54.53
2018-07-03T03:48:33.563Z,54.56
2018-07-03T03:49:33.469Z,54.52
2018-07-03T03:50:33.769Z,54.56
2018-07-03T03:51:33.386Z,54.58
2018-07-03T03:52:33.589Z,54.58
2018-07-03T03:53:33.530Z,54.59
2018-07-03T03:54:33.639Z,54.57
2018-07-03T03:55:33.571Z,54.59
2018-07-03T03:56:33.508Z,54.55
2018-07-03T03:57:33.413Z,54.57
2018-07-03T03:58:43.563Z,54.57
2018-07-03T03:59:33.583Z,54.56
2018-07-03T04:00:33.568Z,54.56
2018-07-03T04:01:33.563Z,54.57
2018-07-03T04:02:33.442Z,54.62
2018-07-03T04:03:33.396Z,54.6
2018-07-03T04:04:33.435Z,54.6
2018-07-03T04:05:33.375Z,54.56
2018-07-03T04:06:33.600Z,54.56
2018-07-03T04:07:33.719Z,54.59
2018-07-03T04:08:33.484Z,54.6
2018-07-03T04:09:33.583Z,54.59
2018-07-03T04:10:33.493Z,54.59
2018-07-03T04:11:33.599Z,54.59
2018-07-03T04:12:33.449Z,54.6
2018-07-03T04:13:33.619Z,54.6
2018-07-03T04:14:33.474Z,54.6
2018-07-03T04:15:33.441Z,54.61
2018-07-03T04:16:33.507Z,54.58
2018-07-03T04:17:33.391Z,54.62
2018-07-03T04:18:33.484Z,54.62
2018-07-03T04:19:33.444Z,54.6
2018-07-03T04:20:33.593Z,54.57
2018-07-03T04:21:33.337Z,54.63
2018-07-03T04:22:33.482Z,54.65
2018-07-03T04:23:33.477Z,54.61
2018-07-03T04:24:33.556Z,54.62
2018-07-03T04:25:33.528Z,54.61
2018-07-03T04:26:33.374Z,54.6
2018-07-03T04:27:33.723Z,54.63
2018-07-03T04:28:33.478Z,54.62
2018-07-03T04:29:33.627Z,54.65
2018-07-03T04:30:33.281Z,54.6
2018-07-03T04:31:33.642Z,54.62
2018-07-03T04:32:33.499Z,54.63
2018-07-03T04:33:33.601Z,54.64
2018-07-03T04:34:33.455Z,54.63
2018-07-03T04:35:33.499Z,54.63
2018-07-03T04:36:33.592Z,54.66
2018-07-03T04:37:33.535Z,54.62
2018-07-03T04:38:33.464Z,54.67
2018-07-03T04:39:33.406Z,54.66
2018-07-03T04:40:33.619Z,54.66
2018-07-03T04:41:33.451Z,54.64
2018-07-03T04:42:33.493Z,54.64
2018-07-03T04:43:33.406Z,54.65
2018-07-03T04:44:33.600Z,54.63
2018-07-03T04:45:33.449Z,54.66
2018-07-03T04:46:33.566Z,54.66
2018-07-03T04:47:33.469Z,54.62
2018-07-03T04:48:33.356Z,54.67
2018-07-03T04:49:33.488Z,54.63
2018-07-03T04:50:33.493Z,54.63
2018-07-03T04:51:33.464Z,54.63
2018-07-03T04:52:33.379Z,54.66
2018-07-03T04:53:33.516Z,54.64
2018-07-03T04:54:33.254Z,54.64
2018-07-03T04:55:33.463Z,54.65
2018-07-03T04:56:33.487Z,54.65
2018-07-03T04:57:33.330Z,54.63
2018-07-03T04:58:33.529Z,54.65
2018-07-03T04:59:33.392Z,54.64
2018-07-03T05:00:33.535Z,54.62
2018-07-03T05:01:33.580Z,54.64
2018-07-03T05:02:33.526Z,54.65
2018-07-03T05:03:33.856Z,54.68
2018-07-03T05:04:33.618Z,54.65
2018-07-03T05:05:33.392Z,54.64
2018-07-03T05:06:33.338Z,54.63
2018-07-03T05:07:33.613Z,54.66
2018-07-03T05:08:33.569Z,54.66
2018-07-03T05:09:33.403Z,54.68
2018-07-03T05:10:33.528Z,54.66
2018-07-03T05:11:33.552Z,54.69
2018-07-03T05:12:33.788Z,54.71
2018-07-03T05:13:33.554Z,54.67
2018-07-03T05:14:33.502Z,54.69
2018-07-03T05:15:33.478Z,54.68
2018-07-03T05:16:33.905Z,54.69
2018-07-03T05:17:34.308Z,54.7
2018-07-03T05:18:33.679Z,54.67
2018-07-03T05:19:33.474Z,54.72
2018-07-03T05:20:33.427Z,54.68
2018-07-03T05:21:33.308Z,54.7
2018-07-03T05:22:33.442Z,54.7
2018-07-03T05:23:33.507Z,54.67
2018-07-03T05:24:33.645Z,54.7
2018-07-03T05:25:33.364Z,54.7
2018-07-03T05:26:33.463Z,54.72
2018-07-03T05:27:33.513Z,54.72
2018-07-03T05:28:33.423Z,54.66
2018-07-03T05:29:33.474Z,54.73
2018-07-03T05:30:33.607Z,54.72
2018-07-03T05:31:37.013Z,54.74
2018-07-03T05:32:33.512Z,54.7
2018-07-03T05:33:33.454Z,54.69
2018-07-03T05:34:33.488Z,54.72
2018-07-03T05:35:33.827Z,54.67
2018-07-03T05:36:33.402Z,54.71
2018-07-03T05:37:33.568Z,54.67
2018-07-03T05:38:33.432Z,54.68
2018-07-03T05:39:33.544Z,54.71
2018-07-03T05:40:33.639Z,54.71
2018-07-03T05:41:33.529Z,54.69
2018-07-03T05:42:33.763Z,54.72
2018-07-03T05:43:33.956Z,54.76
2018-07-03T05:44:33.595Z,54.71
2018-07-03T05:45:33.693Z,54.72
2018-07-03T05:46:33.546Z,54.74
2018-07-03T05:47:33.594Z,54.73
2018-07-03T05:48:33.531Z,54.72
2018-07-03T05:49:33.506Z,54.73
2018-07-03T05:50:33.597Z,54.71
2018-07-03T05:51:34.329Z,54.75
2018-07-03T05:52:33.499Z,54.7
2018-07-03T05:53:33.793Z,54.71
2018-07-03T05:54:33.993Z,54.71
2018-07-03T05:55:33.394Z,54.67
2018-07-03T05:56:34.489Z,54.7
2018-07-03T05:57:33.429Z,54.67
2018-07-03T05:58:33.473Z,54.67
2018-07-03T05:59:33.692Z,54.71
2018-07-03T06:00:33.301Z,54.69
2018-07-03T06:01:33.487Z,54.71
2018-07-03T06:02:33.515Z,54.67
2018-07-03T06:03:33.450Z,54.73
2018-07-03T06:04:33.486Z,54.73
2018-07-03T06:05:33.383Z,54.72
2018-07-03T06:06:33.418Z,54.72
2018-07-03T06:07:33.427Z,54.7
2018-07-03T06:08:33.325Z,54.7
2018-07-03T06:09:33.683Z,54.66
2018-07-03T06:10:33.527Z,54.72
2018-07-03T06:11:33.643Z,54.72
2018-07-03T06:12:33.635Z,54.7
2018-07-03T06:13:33.470Z,54.72
2018-07-03T06:14:33.688Z,54.67
2018-07-03T06:15:33.777Z,54.72
2018-07-03T06:16:33.543Z,54.73
2018-07-03T06:17:33.780Z,54.71
2018-07-03T06:18:33.583Z,54.74
2018-07-03T06:19:33.518Z,54.66
2018-07-03T06:20:33.566Z,54.71
2018-07-03T06:21:33.429Z,54.69
2018-07-03T06:22:33.364Z,54.7
2018-07-03T06:23:33.460Z,54.72
2018-07-03T06:24:33.727Z,54.71
2018-07-03T06:25:33.941Z,54.71
2018-07-03T06:26:33.640Z,54.71
2018-07-03T06:27:33.570Z,54.72
2018-07-03T06:28:33.806Z,54.71
2018-07-03T06:29:33.380Z,54.73
2018-07-03T06:30:33.452Z,54.73
2018-07-03T06:31:33.451Z,54.75
2018-07-03T06:32:33.713Z,54.71
2018-07-03T06:33:33.378Z,54.75
2018-07-03T06:34:33.487Z,54.71
2018-07-03T06:35:33.752Z,54.69
2018-07-03T06:36:33.289Z,54.73
2018-07-03T06:37:34.071Z,54.71
2018-07-03T06:38:33.508Z,54.7
2018-07-03T06:39:33.624Z,54.7
2018-07-03T06:40:33.328Z,54.7
2018-07-03T06:41:33.436Z,54.67
2018-07-03T06:42:33.792Z,54.74
2018-07-03T06:43:33.386Z,54.73
2018-07-03T06:44:33.583Z,54.72
2018-07-03T06:45:33.507Z,54.72
2018-07-03T06:46:34.181Z,54.7
2018-07-03T06:47:33.392Z,54.72
2018-07-03T06:48:33.781Z,54.75
2018-07-03T06:49:33.668Z,54.71
2018-07-03T06:50:33.535Z,54.75
2018-07-03T06:51:34.074Z,54.71
2018-07-03T06:52:33.382Z,54.74
2018-07-03T06:53:33.460Z,54.75
2018-07-03T06:54:33.388Z,54.7
2018-07-03T06:55:33.447Z,54.71
2018-07-03T06:56:33.530Z,54.74
2018-07-03T06:57:33.564Z,54.75
2018-07-03T06:58:33.454Z,54.71
2018-07-03T06:59:33.368Z,54.75
2018-07-03T07:00:33.448Z,54.76
2018-07-03T07:01:33.328Z,54.74
2018-07-03T07:02:33.579Z,54.75
2018-07-03T07:03:33.558Z,54.75
2018-07-03T07:04:33.471Z,54.71
2018-07-03T07:05:33.338Z,54.73
2018-07-03T07:06:33.563Z,54.73
2018-07-03T07:07:33.540Z,54.74
2018-07-03T07:08:34.081Z,54.72
2018-07-03T07:09:34.583Z,54.76
2018-07-03T07:10:33.558Z,54.78
2018-07-03T07:11:33.480Z,54.73
2018-07-03T07:12:33.392Z,54.76
2018-07-03T07:13:33.429Z,54.75
2018-07-03T07:14:33.354Z,54.77
2018-07-03T07:15:33.452Z,54.74
2018-07-03T07:16:33.481Z,54.75
2018-07-03T07:17:33.594Z,54.74
2018-07-03T07:18:33.319Z,54.76
2018-07-03T07:19:33.544Z,54.73
2018-07-03T07:20:33.410Z,54.73
2018-07-03T07:21:33.427Z,54.73
2018-07-03T07:22:33.314Z,54.73
2018-07-03T07:23:43.496Z,54.74
2018-07-03T07:24:33.543Z,54.74
2018-07-03T07:25:33.811Z,54.74
2018-07-03T07:26:33.667Z,54.72
2018-07-03T07:27:33.319Z,54.79
2018-07-03T07:28:33.295Z,54.78
2018-07-03T07:29:33.462Z,54.73
2018-07-03T07:30:33.410Z,54.75
2018-07-03T07:31:33.424Z,54.73
2018-07-03T07:32:33.432Z,54.73
2018-07-03T07:33:33.604Z,54.76
2018-07-03T07:34:33.515Z,54.74
2018-07-03T07:35:34.224Z,54.74
2018-07-03T07:36:33.871Z,54.79
2018-07-03T07:37:33.338Z,54.75
2018-07-03T07:38:33.561Z,54.74
2018-07-03T07:39:33.381Z,54.79
2018-07-03T07:40:33.548Z,54.76
2018-07-03T07:41:33.423Z,54.79
2018-07-03T07:42:33.947Z,54.79
2018-07-03T07:43:33.410Z,54.76
2018-07-03T07:44:33.368Z,54.74
2018-07-03T07:45:33.508Z,54.81
2018-07-03T07:46:33.486Z,54.78
2018-07-03T07:47:33.779Z,54.77
2018-07-03T07:48:33.594Z,54.79
2018-07-03T07:49:33.433Z,54.72
2018-07-03T07:50:33.562Z,54.75
2018-07-03T07:51:33.345Z,54.75
2018-07-03T07:52:33.424Z,54.74
2018-07-03T07:53:33.431Z,54.74
2018-07-03T07:54:33.340Z,54.7
2018-07-03T07:55:33.308Z,54.76
2018-07-03T07:56:33.564Z,54.79
2018-07-03T07:57:33.675Z,54.75
2018-07-03T07:58:33.365Z,54.74
2018-07-03T07:59:33.363Z,54.77
2018-07-03T08:00:33.480Z,54.76
2018-07-03T08:01:33.846Z,54.75
2018-07-03T08:02:33.626Z,54.76
2018-07-03T08:03:33.400Z,54.73
2018-07-03T08:04:33.317Z,54.73
2018-07-03T08:05:33.543Z,54.69
2018-07-03T08:06:33.375Z,54.74
2018-07-03T08:07:33.711Z,54.7
2018-07-03T08:08:33.362Z,54.69
2018-07-03T08:09:33.276Z,54.71
2018-07-03T08:10:33.363Z,54.69
2018-07-03T08:11:33.399Z,54.7
2018-07-03T08:12:33.479Z,54.72
2018-07-03T08:13:33.396Z,54.68
2018-07-03T08:14:33.677Z,54.69
2018-07-03T08:15:33.457Z,54.69
2018-07-03T08:16:33.366Z,54.66
2018-07-03T08:17:33.452Z,54.64
2018-07-03T08:18:33.378Z,54.66
2018-07-03T08:19:33.507Z,54.69
2018-07-03T08:20:33.372Z,54.68
2018-07-03T08:21:33.441Z,54.7
2018-07-03T08:22:43.483Z,54.67
2018-07-03T08:23:33.380Z,54.62
2018-07-03T08:24:33.440Z,54.65
2018-07-03T08:25:33.549Z,54.66
2018-07-03T08:26:33.905Z,54.66
2018-07-03T08:27:33.329Z,54.69
2018-07-03T08:28:33.466Z,54.65
2018-07-03T08:29:33.581Z,54.64
2018-07-03T08:30:33.528Z,54.65
2018-07-03T08:31:33.337Z,54.68
2018-07-03T08:32:33.502Z,54.66
2018-07-03T08:33:33.425Z,54.69
2018-07-03T08:34:33.608Z,54.69
2018-07-03T08:35:33.664Z,54.67
2018-07-03T08:36:33.397Z,54.68
2018-07-03T08:37:33.500Z,54.69
2018-07-03T08:38:33.438Z,54.69
2018-07-03T08:39:33.495Z,54.71
2018-07-03T08:40:33.445Z,54.72
2018-07-03T08:41:33.325Z,54.67
2018-07-03T08:42:33.365Z,54.69
2018-07-03T08:43:33.446Z,54.66
2018-07-03T08:44:33.341Z,54.7
2018-07-03T08:45:33.286Z,54.73
2018-07-03T08:46:33.437Z,54.71
2018-07-03T08:47:33.683Z,54.72
2018-07-03T08:48:33.619Z,54.72
2018-07-03T08:49:33.463Z,54.72
2018-07-03T08:50:33.402Z,54.72
2018-07-03T08:51:33.837Z,54.7
2018-07-03T08:52:33.561Z,54.74
2018-07-03T08:53:33.408Z,54.74
2018-07-03T08:54:33.300Z,54.72
2018-07-03T08:55:33.474Z,54.73
2018-07-03T08:56:33.482Z,54.73
2018-07-03T08:57:33.526Z,54.69
2018-07-03T08:58:33.373Z,54.7
2018-07-03T08:59:33.408Z,54.72
2018-07-03T09:00:33.586Z,54.72
2018-07-03T09:01:33.476Z,54.73
2018-07-03T09:02:33.340Z,54.69
2018-07-03T09:03:33.274Z,54.68
2018-07-03T09:04:33.396Z,54.71
2018-07-03T09:05:33.482Z,54.69
2018-07-03T09:06:33.403Z,54.75
2018-07-03T09:07:33.488Z,54.76
2018-07-03T09:08:33.355Z,54.76
2018-07-03T09:09:33.371Z,54.73
2018-07-03T09:10:33.271Z,54.71
2018-07-03T09:11:33.849Z,54.73
2018-07-03T09:12:33.323Z,54.72
2018-07-03T09:13:33.548Z,54.77
2018-07-03T09:14:33.485Z,54.76
2018-07-03T09:15:33.405Z,54.75
2018-07-03T09:16:33.287Z,54.78
2018-07-03T09:17:33.387Z,54.73
2018-07-03T09:18:33.516Z,54.73
2018-07-03T09:19:33.362Z,54.76
2018-07-03T09:20:33.335Z,54.77
2018-07-03T09:21:33.321Z,54.79
2018-07-03T09:22:33.532Z,54.73
2018-07-03T09:23:33.671Z,54.76
2018-07-03T09:24:33.336Z,54.78
2018-07-03T09:25:33.362Z,54.75
2018-07-03T09:26:33.579Z,54.76
2018-07-03T09:27:33.275Z,54.74
2018-07-03T09:28:33.483Z,54.78
2018-07-03T09:29:33.513Z,54.76
2018-07-03T09:30:33.450Z,54.74
2018-07-03T09:31:33.441Z,54.79
2018-07-03T09:32:33.281Z,54.8
2018-07-03T09:33:33.418Z,54.8
2018-07-03T09:34:33.369Z,54.79
2018-07-03T09:35:33.337Z,54.79
2018-07-03T09:36:33.519Z,54.8
2018-07-03T09:37:33.512Z,54.81
2018-07-03T09:38:33.409Z,54.78
2018-07-03T09:39:33.439Z,54.76
2018-07-03T09:40:33.386Z,54.78
2018-07-03T09:41:33.475Z,54.82
2018-07-03T09:42:33.898Z,54.83
2018-07-03T09:43:33.531Z,54.81
2018-07-03T09:44:33.403Z,54.79
2018-07-03T09:45:33.407Z,54.85
2018-07-03T09:46:33.522Z,54.82
2018-07-03T09:47:33.503Z,54.79
2018-07-03T09:48:33.364Z,54.82
2018-07-03T09:49:33.575Z,54.82
2018-07-03T09:50:33.427Z,54.79
2018-07-03T09:51:33.749Z,54.79
2018-07-03T09:52:33.372Z,54.78
2018-07-03T09:53:33.564Z,54.8
2018-07-03T09:54:33.403Z,54.81
2018-07-03T09:55:33.777Z,54.81
2018-07-03T09:56:33.472Z,54.8
2018-07-03T09:57:33.256Z,54.8
2018-07-03T09:58:33.393Z,54.82
2018-07-03T09:59:33.330Z,54.82
2018-07-03T10:00:33.468Z,54.82
2018-07-03T10:01:33.460Z,54.86
2018-07-03T10:02:33.623Z,54.81
2018-07-03T10:03:33.605Z,54.81
2018-07-03T10:04:33.492Z,54.81
2018-07-03T10:05:33.560Z,54.81
2018-07-03T10:06:33.354Z,54.73
2018-07-03T10:07:33.463Z,54.67
2018-07-03T10:08:33.282Z,54.65
2018-07-03T10:09:33.293Z,54.73
2018-07-03T10:10:35.723Z,54.72
2018-07-03T10:11:33.469Z,54.77
2018-07-03T10:12:33.374Z,54.78
2018-07-03T10:13:33.367Z,54.81
2018-07-03T10:14:33.348Z,54.82
2018-07-03T10:15:33.480Z,54.83
2018-07-03T10:16:33.420Z,54.84
2018-07-03T10:17:33.272Z,54.76
2018-07-03T10:18:33.375Z,54.8
2018-07-03T10:19:33.437Z,54.8
2018-07-03T10:20:33.395Z,54.83
2018-07-03T10:21:33.311Z,54.81
2018-07-03T10:22:33.423Z,54.8
2018-07-03T10:23:33.366Z,54.79
2018-07-03T10:24:33.333Z,54.82
2018-07-03T10:25:34.009Z,54.78
2018-07-03T10:27:03.823Z,54.8
2018-07-03T10:27:33.479Z,54.81
2018-07-03T10:28:33.317Z,54.87
2018-07-03T10:29:33.288Z,54.8
2018-07-03T10:30:33.594Z,54.87
2018-07-03T10:31:33.265Z,54.82
2018-07-03T10:32:33.243Z,54.81
2018-07-03T10:33:33.481Z,54.81
2018-07-03T10:34:33.409Z,54.81
2018-07-03T10:35:33.405Z,54.83
2018-07-03T10:36:33.343Z,54.83
2018-07-03T10:37:33.373Z,54.83
2018-07-03T10:38:33.334Z,54.77
2018-07-03T10:39:33.421Z,54.85
2018-07-03T10:40:33.204Z,54.83
2018-07-03T10:41:33.378Z,54.82
2018-07-03T10:42:33.432Z,54.82
2018-07-03T10:43:33.411Z,54.88
2018-07-03T10:44:33.310Z,54.79
2018-07-03T10:45:33.280Z,54.86
2018-07-03T10:46:33.493Z,54.8
2018-07-03T10:47:33.494Z,54.82
2018-07-03T10:48:33.310Z,54.83
2018-07-03T10:49:33.264Z,54.82
2018-07-03T10:50:33.340Z,54.8
2018-07-03T10:51:33.205Z,54.83
2018-07-03T10:52:33.503Z,54.82
2018-07-03T10:53:33.332Z,54.83
2018-07-03T10:54:33.388Z,54.83
2018-07-03T10:55:33.387Z,54.8
2018-07-03T10:56:33.538Z,54.86
2018-07-03T10:57:33.513Z,54.85
2018-07-03T10:58:33.241Z,54.81
2018-07-03T10:59:33.980Z,54.82
2018-07-03T11:00:33.486Z,54.88
2018-07-03T11:01:33.288Z,54.85
2018-07-03T11:02:33.268Z,54.84
2018-07-03T11:03:33.583Z,54.84
2018-07-03T11:04:33.483Z,54.88
2018-07-03T11:05:33.834Z,54.87
2018-07-03T11:06:33.580Z,54.88
2018-07-03T11:07:33.251Z,54.89
2018-07-03T11:08:33.320Z,54.9
2018-07-03T11:09:33.326Z,54.83
2018-07-03T11:10:33.556Z,54.84
2018-07-03T11:11:33.497Z,54.83
2018-07-03T11:12:33.390Z,54.87
2018-07-03T11:13:33.396Z,54.85
2018-07-03T11:14:33.501Z,54.8
2018-07-03T11:15:33.387Z,54.83
2018-07-03T11:16:33.691Z,54.86
2018-07-03T11:17:33.524Z,54.83
2018-07-03T11:18:33.468Z,54.8
2018-07-03T11:19:33.699Z,54.88
2018-07-03T11:20:33.516Z,54.79
2018-07-03T11:21:33.324Z,54.85
2018-07-03T11:22:33.472Z,54.82
2018-07-03T11:23:33.580Z,54.81
2018-07-03T11:24:33.487Z,54.87
2018-07-03T11:25:33.536Z,54.82
2018-07-03T11:26:33.975Z,54.83
2018-07-03T11:27:33.560Z,54.8
2018-07-03T11:28:33.779Z,54.76
2018-07-03T11:29:33.320Z,54.78
2018-07-03T11:30:33.548Z,54.84
2018-07-03T11:31:33.372Z,54.8
2018-07-03T11:32:33.496Z,54.8
2018-07-03T11:33:33.540Z,54.8
2018-07-03T11:34:33.329Z,54.8
2018-07-03T11:35:33.540Z,54.8
2018-07-03T11:36:33.475Z,54.78
2018-07-03T11:37:33.276Z,54.79
2018-07-03T11:38:33.414Z,54.8
2018-07-03T11:39:33.507Z,54.82
2018-07-03T11:40:33.522Z,54.83
2018-07-03T11:41:33.432Z,54.83
2018-07-03T11:42:33.430Z,54.79
2018-07-03T11:43:33.392Z,55.17
2018-07-03T11:44:33.408Z,54.63
2018-07-03T11:45:33.304Z,54.68
2018-07-03T11:46:33.889Z,54.64
2018-07-03T11:47:33.590Z,54.52
2018-07-03T11:48:33.403Z,54.59
2018-07-03T11:49:33.442Z,54.67
2018-07-03T11:50:33.489Z,54.66
2018-07-03T11:51:33.552Z,54.69
2018-07-03T11:52:33.335Z,54.69
2018-07-03T11:53:33.887Z,54.74
2018-07-03T11:54:33.422Z,54.75
2018-07-03T11:55:33.387Z,54.76
2018-07-03T11:56:33.294Z,54.83
2018-07-03T11:57:33.446Z,54.87
2018-07-03T11:58:33.561Z,54.81
2018-07-03T11:59:33.413Z,54.85
2018-07-03T12:00:33.549Z,54.89
2018-07-03T12:01:34.335Z,54.9
2018-07-03T12:02:33.383Z,54.92
2018-07-03T12:03:33.363Z,54.94
2018-07-03T12:04:33.404Z,54.95
2018-07-03T12:05:33.383Z,54.94
2018-07-03T12:06:33.547Z,54.95
2018-07-03T12:07:33.373Z,54.98
2018-07-03T12:08:33.443Z,54.97
2018-07-03T12:09:33.419Z,54.96
2018-07-03T12:10:33.412Z,54.99
2018-07-03T12:11:33.226Z,54.96
2018-07-03T12:12:33.193Z,54.94
2018-07-03T12:13:33.401Z,54.96
2018-07-03T12:14:33.308Z,54.94
2018-07-03T12:15:33.712Z,55
2018-07-03T12:16:33.560Z,54.95
2018-07-03T12:17:33.440Z,54.95
2018-07-03T12:18:33.434Z,54.95
2018-07-03T12:19:33.922Z,54.93
2018-07-03T12:20:33.353Z,54.98
2018-07-03T12:21:33.400Z,54.97
2018-07-03T12:22:33.480Z,54.98
2018-07-03T12:23:33.556Z,54.99
2018-07-03T12:24:33.264Z,54.97
2018-07-03T12:25:33.410Z,55.03
2018-07-03T12:26:33.385Z,55.02
2018-07-03T12:27:33.322Z,54.99
2018-07-03T12:28:33.272Z,55
2018-07-03T12:29:33.286Z,54.98
2018-07-03T12:30:33.442Z,55.01
2018-07-03T12:31:33.244Z,55.01
2018-07-03T12:32:33.437Z,54.98
2018-07-03T12:33:33.291Z,55.03
2018-07-03T12:34:33.603Z,55
2018-07-03T12:35:33.545Z,55.04
2018-07-03T12:36:33.254Z,55.03
2018-07-03T12:37:43.265Z,55.06
2018-07-03T12:38:33.399Z,55.07
2018-07-03T12:39:33.377Z,55.07
2018-07-03T12:40:33.540Z,55.04
2018-07-03T12:41:33.304Z,55.04
2018-07-03T12:42:33.217Z,55.04
2018-07-03T12:43:33.470Z,55.07
2018-07-03T12:44:33.224Z,55.03
2018-07-03T12:45:33.257Z,55.06
2018-07-03T12:46:33.424Z,55.07
2018-07-03T12:47:33.386Z,55.1
2018-07-03T12:48:33.368Z,55.08
2018-07-03T12:49:33.430Z,55.05
2018-07-03T12:50:33.479Z,55.05
2018-07-03T12:51:33.352Z,55.06
2018-07-03T12:52:33.267Z,55.09
2018-07-03T12:53:33.376Z,55.08
2018-07-03T12:54:33.373Z,55.06
2018-07-03T12:55:33.548Z,55.09